Time;durP1;ratioP1;P1;durP2;ratioP2;P2;SDS_P1;SDS_P2;PMS_P1;PMS_P2;Temp;Humidity;BMP_temperature;BMP_pressure;BME280_temperature;BME280_humidity;BME280_pressure;Samples;Min_cycle;Max_cycle;Signal;HPM_P1;HPM_P2
2022/10/14 00:00:13;;;;;;;18.37;12.97;;;;;;;11.68;100.00;100771.63;696058;28;1169;-63
2022/10/14 00:00:35;;;;;;;17.13;13.15;;;;;;;11.67;100.00;100769.88;695130;28;2320;-63
2022/10/14 00:01:04;;;;;;;15.88;13.00;;;;;;;11.63;100.00;100778.66;696842;28;4657;-63
2022/10/14 00:01:29;;;;;;;16.35;13.45;;;;;;;11.62;100.00;100779.56;698533;28;1197;-63
2022/10/14 00:01:49;;;;;;;16.58;12.95;;;;;;;11.61;100.00;100775.19;699232;28;1174;-63
2022/10/14 00:02:10;;;;;;;15.87;13.43;;;;;;;11.59;100.00;100770.81;698476;28;1390;-63
2022/10/14 00:02:30;;;;;;;17.08;13.77;;;;;;;11.63;100.00;100776.91;695639;28;1337;-63
2022/10/14 00:02:51;;;;;;;18.40;13.90;;;;;;;11.65;100.00;100774.28;695345;28;1261;-63
2022/10/14 00:03:11;;;;;;;17.40;13.63;;;;;;;11.63;100.00;100773.41;695531;28;1146;-63
2022/10/14 00:03:32;;;;;;;16.30;13.43;;;;;;;11.61;100.00;100775.19;694747;28;1964;-63
2022/10/14 00:03:54;;;;;;;17.02;13.07;;;;;;;11.59;100.00;100770.81;695226;28;4375;-63
2022/10/14 00:04:14;;;;;;;16.75;13.00;;;;;;;11.58;100.00;100765.59;695597;28;2186;-63
2022/10/14 00:04:34;;;;;;;15.93;12.87;;;;;;;11.56;100.00;100768.22;698006;28;1123;-63
2022/10/14 00:04:55;;;;;;;17.33;13.37;;;;;;;11.62;100.00;100769.06;697965;28;1114;-63
2022/10/14 00:05:15;;;;;;;17.30;13.50;;;;;;;11.62;100.00;100774.31;697870;28;1091;-63
2022/10/14 00:05:39;;;;;;;16.73;13.37;;;;;;;11.62;100.00;100774.31;695913;28;1202;-63
2022/10/14 00:06:13;;;;;;;17.65;13.68;;;;;;;11.59;100.00;100772.59;695781;28;1165;-63
2022/10/14 00:06:34;;;;;;;16.75;13.20;;;;;;;11.59;100.00;100777.81;694742;28;1018;-63
2022/10/14 00:06:54;;;;;;;15.97;12.97;;;;;;;11.59;100.00;100768.19;694948;28;4504;-63
2022/10/14 00:07:15;;;;;;;15.88;12.95;;;;;;;11.58;100.00;100769.06;696290;28;1348;-63
2022/10/14 00:07:36;;;;;;;15.48;13.00;;;;;;;11.59;100.00;100773.44;695327;28;2358;-63
2022/10/14 00:07:57;;;;;;;16.75;13.55;;;;;;;11.59;100.00;100764.72;695570;28;1238;-63
2022/10/14 00:08:17;;;;;;;16.58;13.02;;;;;;;11.59;100.00;100773.44;695405;28;1146;-63
2022/10/14 00:08:38;;;;;;;16.83;13.50;;;;;;;11.57;100.00;100772.59;695902;28;1150;-63
2022/10/14 00:09:03;;;;;;;15.77;13.13;;;;;;;11.57;100.00;100780.44;696278;28;1186;-63
2022/10/14 00:09:24;;;;;;;16.73;13.32;;;;;;;11.56;100.00;100770.84;695645;28;1473;-63
2022/10/14 00:09:45;;;;;;;16.50;12.90;;;;;;;11.56;100.00;100770.84;693616;28;4371;-63
2022/10/14 00:10:07;;;;;;;15.95;12.90;;;;;;;11.57;100.00;100774.31;696447;28;1099;-63
2022/10/14 00:10:27;;;;;;;16.23;12.80;;;;;;;11.58;100.00;100774.31;696150;28;2634;-63
2022/10/14 00:10:48;;;;;;;16.05;12.77;;;;;;;11.58;100.00;100776.06;696557;28;1364;-63
2022/10/14 00:11:12;;;;;;;15.73;13.23;;;;;;;11.57;100.00;100769.97;695864;28;1491;-63
2022/10/14 00:11:34;;;;;;;17.38;13.15;;;;;;;11.57;100.00;100769.97;695262;28;1260;-64
2022/10/14 00:11:55;;;;;;;17.77;13.30;;;;;;;11.57;100.00;100769.09;694685;28;1238;-63
2022/10/14 00:12:15;;;;;;;16.07;12.83;;;;;;;11.58;100.00;100771.69;695938;28;1597;-63
2022/10/14 00:12:35;;;;;;;17.30;13.47;;;;;;;11.57;100.00;100780.44;694780;28;4638;-63
2022/10/14 00:12:56;;;;;;;16.30;13.37;;;;;;;11.58;100.00;100774.31;695580;28;1241;-63
2022/10/14 00:13:17;;;;;;;16.25;12.95;;;;;;;11.58;100.00;100771.69;696398;28;1226;-63
2022/10/14 00:13:37;;;;;;;17.93;13.13;;;;;;;11.58;100.00;100770.84;695366;28;1353;-63
2022/10/14 00:14:06;;;;;;;17.75;12.90;;;;;;;11.58;100.00;100769.06;695129;28;1238;-63
2022/10/14 00:14:27;;;;;;;15.68;12.60;;;;;;;11.59;100.00;100770.81;696427;28;1309;-63
2022/10/14 00:14:48;;;;;;;15.93;13.07;;;;;;;11.59;100.00;100768.19;694852;28;1554;-63
2022/10/14 00:15:09;;;;;;;15.60;12.80;;;;;;;11.63;100.00;100773.41;695636;28;1456;-63
2022/10/14 00:15:29;;;;;;;15.35;13.00;;;;;;;11.63;100.00;100771.69;695823;28;1487;-63
2022/10/14 00:15:49;;;;;;;15.83;13.63;;;;;;;11.62;100.00;100772.56;695130;28;4349;-63
2022/10/14 00:16:21;;;;;;;16.17;13.10;;;;;;;11.66;100.00;100769.03;696572;28;1210;-63
2022/10/14 00:16:44;;;;;;;16.33;13.32;;;;;;;11.71;100.00;100772.50;695735;28;1353;-63
2022/10/14 00:17:05;;;;;;;16.88;13.50;;;;;;;11.72;100.00;100773.34;694753;28;1412;-63
2022/10/14 00:17:26;;;;;;;15.73;13.07;;;;;;;11.71;100.00;100763.75;695668;28;1236;-63
2022/10/14 00:17:46;;;;;;;16.20;13.23;;;;;;;11.68;100.00;100766.41;696007;28;2287;-63
2022/10/14 00:18:08;;;;;;;15.43;12.93;;;;;;;11.66;100.00;100768.13;695257;28;1336;-63
2022/10/14 00:18:29;;;;;;;16.40;13.02;;;;;;;11.63;100.00;100763.81;694445;28;1470;-63
2022/10/14 00:18:49;;;;;;;15.57;13.20;;;;;;;11.67;100.00;100765.53;695160;28;4469;-63
2022/10/14 00:19:10;;;;;;;16.33;13.15;;;;;;;11.80;100.00;100765.44;697339;28;1122;-63
2022/10/14 00:19:31;;;;;;;15.93;12.85;;;;;;;11.93;100.00;100764.44;694503;28;1290;-64
2022/10/14 00:19:51;;;;;;;15.47;13.10;;;;;;;11.89;100.00;100762.72;694393;28;1126;-63
2022/10/14 00:20:12;;;;;;;15.73;12.93;;;;;;;11.89;100.00;100761.00;694483;28;2297;-63
2022/10/14 00:20:32;;;;;;;15.37;13.10;;;;;;;12.00;100.00;100768.75;695302;28;2545;-64
2022/10/14 00:20:57;;;;;;;16.95;12.90;;;;;;;12.17;100.00;100766.00;695668;28;1218;-63
2022/10/14 00:21:18;;;;;;;16.17;13.07;;;;;;;12.20;100.00;100763.34;695411;28;1464;-64
2022/10/14 00:21:41;;;;;;;17.02;12.50;;;;;;;12.22;100.00;100768.56;695090;28;4728;-64
2022/10/14 00:22:01;;;;;;;15.55;12.02;;;;;;;12.27;100.00;100765.03;696698;28;1313;-64
2022/10/14 00:22:22;;;;;;;16.67;12.97;;;;;;;12.30;100.00;100755.41;696163;28;1135;-63
2022/10/14 00:22:42;;;;;;;14.43;12.20;;;;;;;12.20;100.00;100765.97;695441;28;1471;-63
2022/10/14 00:23:02;;;;;;;16.17;12.47;;;;;;;12.21;100.00;100761.59;696988;28;1341;-64
2022/10/14 00:23:24;;;;;;;16.83;12.55;;;;;;;12.23;100.00;100760.69;696700;28;1982;-63
2022/10/14 00:23:45;;;;;;;16.50;12.88;;;;;;;12.25;100.00;100769.44;696269;28;1661;-63
2022/10/14 00:24:06;;;;;;;16.75;12.65;;;;;;;12.23;100.00;100765.94;697120;28;1340;-65
2022/10/14 00:24:26;;;;;;;15.98;12.88;;;;;;;12.20;100.00;100762.50;696721;28;1133;-62
2022/10/14 00:24:46;;;;;;;17.25;12.93;;;;;;;12.22;100.00;100764.19;694598;28;4383;-64
2022/10/14 00:25:07;;;;;;;17.00;12.77;;;;;;;12.24;100.00;100762.44;696511;28;1492;-63
2022/10/14 00:25:30;;;;;;;17.15;13.00;;;;;;;12.15;100.00;100762.53;695965;28;1028;-63
2022/10/14 00:25:51;;;;;;;15.35;12.13;;;;;;;12.06;100.00;100760.00;697676;28;1213;-63
2022/10/14 00:26:39;;;;;;;15.43;12.57;;;;;;;11.88;100.00;100755.75;696352;28;1205;-63
2022/10/14 00:26:59;;;;;;;17.85;12.35;;;;;;;11.85;100.00;100767.13;693696;28;1404;-63
2022/10/14 00:27:20;;;;;;;16.70;13.00;;;;;;;11.82;100.00;100758.44;695711;28;1288;-63
2022/10/14 00:27:40;;;;;;;15.75;12.63;;;;;;;11.80;100.00;100760.22;692131;28;4555;-63
2022/10/14 00:28:05;;;;;;;18.92;13.30;;;;;;;11.79;100.00;100763.69;692062;28;1456;-63
2022/10/14 00:28:26;;;;;;;16.93;13.40;;;;;;;11.76;100.00;100765.44;690051;28;1152;-63
2022/10/14 00:28:46;;;;;;;17.63;13.70;;;;;;;11.84;100.00;100757.53;690720;28;1196;-63
2022/10/14 00:29:11;;;;;;;16.60;13.30;;;;;;;11.83;100.00;100765.41;690831;28;1563;-62
2022/10/14 00:29:31;;;;;;;16.00;13.32;;;;;;;11.78;100.00;100761.94;692894;28;1090;-63
2022/10/14 00:29:52;;;;;;;15.38;12.88;;;;;;;11.75;100.00;100763.72;688143;28;1076;-63
2022/10/14 00:30:12;;;;;;;16.37;13.07;;;;;;;11.74;100.00;100758.47;682418;28;1231;-63
2022/10/14 00:30:33;;;;;;;17.13;13.33;;;;;;;11.70;100.00;100764.63;684931;28;1502;-63
2022/10/14 00:30:58;;;;;;;16.27;13.18;;;;;;;11.66;100.00;100766.41;686964;28;6067;-63
2022/10/14 00:31:20;;;;;;;17.02;13.13;;;;;;;11.65;100.00;100762.03;687489;28;1164;-63
2022/10/14 00:31:41;;;;;;;16.52;12.82;;;;;;;11.66;100.00;100766.41;689353;28;1258;-63
2022/10/14 00:32:01;;;;;;;17.13;12.70;;;;;;;11.66;100.00;100765.53;695672;28;1414;-63
2022/10/14 00:32:21;;;;;;;17.43;12.97;;;;;;;11.66;100.00;100766.41;697623;28;1432;-63
2022/10/14 00:32:45;;;;;;;16.50;13.32;;;;;;;11.64;100.00;100762.91;695351;28;1451;-63
2022/10/14 00:33:06;;;;;;;17.52;13.65;;;;;;;11.63;100.00;100770.78;696229;28;1337;-63
2022/10/14 00:33:27;;;;;;;18.07;13.37;;;;;;;11.60;100.00;100761.19;695305;28;2321;-63
2022/10/14 00:33:49;;;;;;;16.92;12.90;;;;;;;11.62;100.00;100763.84;695108;28;4334;-63
2022/10/14 00:34:12;;;;;;;16.30;13.30;;;;;;;11.62;100.00;100767.31;696442;28;1107;-63
2022/10/14 00:34:32;;;;;;;16.50;13.60;;;;;;;11.62;100.00;100769.94;696563;28;1225;-64
2022/10/14 00:34:53;;;;;;;14.95;12.90;;;;;;;11.62;100.00;100761.22;696177;28;1309;-63
2022/10/14 00:35:14;;;;;;;14.73;12.57;;;;;;;11.64;100.00;100764.69;696697;28;1130;-63
2022/10/14 00:35:34;;;;;;;15.10;12.68;;;;;;;11.70;100.00;100765.50;693910;28;1163;-64
2022/10/14 00:35:56;;;;;;;16.20;12.77;;;;;;;11.70;100.00;100767.25;693257;28;1151;-63
2022/10/14 00:36:23;;;;;;;15.10;12.45;;;;;;;11.67;100.00;100769.88;689996;28;1187;-63
2022/10/14 00:36:43;;;;;;;16.58;12.55;;;;;;;11.67;100.00;100762.03;690367;28;4308;-63
2022/10/14 00:37:08;;;;;;;16.35;12.98;;;;;;;11.65;100.00;100766.44;693098;28;1460;-64
2022/10/14 00:37:28;;;;;;;14.67;13.00;;;;;;;11.63;100.00;100763.81;695061;28;1418;-63
2022/10/14 00:37:49;;;;;;;14.55;12.60;;;;;;;11.63;100.00;100757.69;693918;28;1237;-63
2022/10/14 00:38:10;;;;;;;15.52;13.07;;;;;;;11.62;100.00;100759.47;689973;28;1192;-63
2022/10/14 00:38:30;;;;;;;15.73;12.57;;;;;;;11.63;100.00;100762.94;690983;28;1195;-64
2022/10/14 00:38:52;;;;;;;15.27;12.70;;;;;;;11.61;100.00;100760.34;691047;28;4998;-64
2022/10/14 00:39:13;;;;;;;17.17;12.73;;;;;;;11.63;100.00;100760.31;693137;28;2205;-63
2022/10/14 00:39:33;;;;;;;15.57;12.60;;;;;;;11.65;100.00;100763.81;693151;28;1461;-63
2022/10/14 00:39:54;;;;;;;15.73;12.70;;;;;;;11.64;100.00;100759.44;694934;28;4277;-64
2022/10/14 00:40:18;;;;;;;15.77;12.57;;;;;;;11.62;100.00;100762.06;694129;28;1496;-63
2022/10/14 00:40:39;;;;;;;16.13;12.68;;;;;;;11.62;100.00;100753.38;694526;28;1385;-64
2022/10/14 00:41:00;;;;;;;15.80;12.65;;;;;;;11.69;100.00;100762.91;692016;28;1398;-63
2022/10/14 00:41:23;;;;;;;16.05;12.65;;;;;;;11.71;100.00;100763.75;691161;28;1362;-64
2022/10/14 00:41:44;;;;;;;15.65;12.63;;;;;;;11.70;100.00;100765.50;691338;28;2163;-64
2022/10/14 00:42:04;;;;;;;15.48;12.73;;;;;;;11.71;100.00;100758.50;692737;28;1275;-64
2022/10/14 00:42:25;;;;;;;16.23;12.73;;;;;;;11.71;100.00;100758.50;693872;28;1250;-64
2022/10/14 00:42:45;;;;;;;16.27;12.40;;;;;;;11.69;100.00;100758.53;695310;28;4405;-63
2022/10/14 00:43:12;;;;;;;15.50;12.30;;;;;;;11.70;100.00;100754.16;696792;28;1226;-64
2022/10/14 00:43:55;;;;;;;14.68;12.27;;;;;;;11.70;100.00;100765.50;698495;28;1906;-64
2022/10/14 00:44:16;;;;;;;14.93;12.30;;;;;;;11.72;100.00;100761.13;697743;28;1150;-64
2022/10/14 00:44:42;;;;;;;14.50;11.93;;;;;;;11.72;100.00;100752.41;696021;28;1524;-64
2022/10/14 00:45:12;;;;;;;14.80;12.02;;;;;;;11.71;100.00;100764.63;696784;28;1186;-63
2022/10/14 00:45:33;;;;;;;16.40;12.63;;;;;;;11.78;100.00;100762.81;694972;28;1444;-64
2022/10/14 00:45:54;;;;;;;16.20;12.40;;;;;;;11.76;100.00;100762.81;695524;28;4557;-64
2022/10/14 00:46:15;;;;;;;16.77;12.88;;;;;;;11.75;100.00;100761.13;695982;28;2350;-64
2022/10/14 00:46:42;;;;;;;14.80;12.20;;;;;;;11.74;100.00;100755.84;696618;28;1134;-64
2022/10/14 00:47:02;;;;;;;18.00;12.25;;;;;;;11.76;100.00;100761.97;695711;28;1111;-64
2022/10/14 00:47:24;;;;;;;15.63;12.43;;;;;;;11.78;100.00;100762.81;695084;28;1126;-64
2022/10/14 00:47:46;;;;;;;16.08;12.73;;;;;;;11.75;100.00;100754.97;694846;28;1641;-64
2022/10/14 00:48:07;;;;;;;14.65;12.63;;;;;;;11.75;100.00;100761.13;695780;28;1325;-64
2022/10/14 00:48:28;;;;;;;14.88;12.60;;;;;;;11.78;100.00;100754.94;693407;28;1489;-64
2022/10/14 00:48:49;;;;;;;15.85;12.50;;;;;;;11.78;100.00;100765.44;690017;28;4794;-63
2022/10/14 00:49:12;;;;;;;15.07;12.77;;;;;;;11.77;100.00;100758.47;689957;28;1486;-64
2022/10/14 00:49:37;;;;;;;16.15;13.07;;;;;;;11.76;100.00;100761.97;692800;28;2113;-64
2022/10/14 00:49:59;;;;;;;15.25;12.60;;;;;;;11.81;100.00;100759.31;692599;28;1281;-64
2022/10/14 00:50:22;;;;;;;16.90;12.90;;;;;;;11.80;100.00;100765.44;693237;28;1278;-64
2022/10/14 00:50:49;;;;;;;16.95;12.90;;;;;;;11.80;100.00;100754.97;694224;28;1322;-64
2022/10/14 00:51:09;;;;;;;14.60;12.20;;;;;;;11.79;100.00;100759.31;695629;28;1667;-63
2022/10/14 00:51:30;;;;;;;15.27;12.50;;;;;;;11.76;100.00;100761.97;696872;28;1241;-64
2022/10/14 00:52:02;;;;;;;15.82;12.80;;;;;;;11.74;100.00;100761.09;694597;28;4384;-64
2022/10/14 00:52:24;;;;;;;15.35;12.23;;;;;;;11.69;100.00;100757.66;693414;28;1205;-63
2022/10/14 00:52:45;;;;;;;16.55;12.52;;;;;;;11.69;100.00;100763.75;692347;28;1542;-64
2022/10/14 00:53:07;;;;;;;15.25;12.02;;;;;;;11.70;100.00;100764.63;695550;28;1530;-64
2022/10/14 00:53:27;;;;;;;15.98;12.57;;;;;;;11.72;100.00;100768.97;693067;28;2095;-63
2022/10/14 00:53:50;;;;;;;14.82;12.23;;;;;;;11.75;100.00;100766.34;694217;28;1510;-64
2022/10/14 00:54:13;;;;;;;15.07;12.60;;;;;;;11.73;100.00;100762.00;690098;28;1124;-63
2022/10/14 00:54:38;;;;;;;16.35;12.50;;;;;;;11.67;100.00;100757.69;688118;28;1704;-64
2022/10/14 00:55:13;;;;;;;16.17;13.93;;;;;;;11.85;100.00;100761.91;687906;28;4963;-65
2022/10/14 00:55:34;;;;;;;16.00;12.30;;;;;;;11.90;100.00;100767.09;685154;28;1446;-65
2022/10/14 00:55:55;;;;;;;14.63;12.75;;;;;;;11.87;100.00;100767.13;686917;28;1121;-64
2022/10/14 00:56:21;;;;;;;16.45;12.15;;;;;;;11.84;100.00;100765.41;687690;28;1164;-64
2022/10/14 00:56:44;;;;;;;15.07;12.23;;;;;;;11.81;100.00;100761.91;688559;28;1291;-64
2022/10/14 00:57:06;;;;;;;15.75;12.20;;;;;;;11.79;100.00;100763.69;688049;28;1401;-64
2022/10/14 00:57:28;;;;;;;15.30;12.07;;;;;;;11.75;100.00;100757.59;690311;28;1175;-64
2022/10/14 00:57:50;;;;;;;15.70;12.25;;;;;;;11.83;100.00;100763.66;695820;28;4425;-64
2022/10/14 00:58:10;;;;;;;15.55;12.13;;;;;;;11.89;100.00;100762.72;693336;28;1187;-64
2022/10/14 00:58:32;;;;;;;13.88;12.07;;;;;;;11.88;100.00;100764.50;695203;28;1234;-64
2022/10/14 00:58:53;;;;;;;14.50;11.93;;;;;;;11.84;100.00;100759.31;696265;28;1217;-64
2022/10/14 00:59:14;;;;;;;15.82;11.82;;;;;;;11.84;100.00;100761.91;696024;28;1175;-64
2022/10/14 00:59:36;;;;;;;16.40;12.20;;;;;;;11.84;100.00;100757.53;695439;28;1210;-64
2022/10/14 01:00:04;;;;;;;15.25;12.32;;;;;;;11.83;100.00;100761.03;693450;28;1301;-64
2022/10/14 01:00:24;;;;;;;14.38;12.02;;;;;;;11.87;100.00;100757.50;695613;28;1175;-63
2022/10/14 01:00:44;;;;;;;15.07;12.38;;;;;;;11.84;100.00;100761.91;694012;28;4733;-63
2022/10/14 01:01:06;;;;;;;14.60;12.77;;;;;;;11.83;100.00;100763.66;695590;28;1186;-64
2022/10/14 01:01:27;;;;;;;15.15;12.27;;;;;;;11.80;100.00;100763.69;695931;28;1462;-63
2022/10/14 01:01:48;;;;;;;15.32;11.88;;;;;;;11.82;100.00;100763.66;697292;28;1381;-64
2022/10/14 01:02:09;;;;;;;16.48;12.00;;;;;;;11.80;100.00;100763.69;698915;28;1315;-64
2022/10/14 01:02:30;;;;;;;15.53;12.30;;;;;;;11.77;100.00;100761.09;695136;28;1682;-63
2022/10/14 01:02:50;;;;;;;14.45;12.30;;;;;;;11.75;100.00;100758.50;693239;28;1278;-63
2022/10/14 01:03:20;;;;;;;14.33;12.20;;;;;;;11.73;100.00;100757.63;690145;28;2328;-63
2022/10/14 01:03:40;;;;;;;14.95;12.50;;;;;;;11.71;100.00;100761.13;690636;28;4300;-63
2022/10/14 01:04:01;;;;;;;14.23;11.98;;;;;;;11.69;100.00;100763.75;688455;28;1303;-63
2022/10/14 01:04:22;;;;;;;15.60;12.50;;;;;;;11.68;100.00;100763.78;685876;28;1437;-64
2022/10/14 01:04:44;;;;;;;15.73;12.63;;;;;;;11.66;100.00;100755.94;689464;28;1605;-63
2022/10/14 01:05:08;;;;;;;16.02;12.48;;;;;;;11.69;100.00;100762.91;691242;28;1170;-63
2022/10/14 01:05:33;;;;;;;14.32;11.85;;;;;;;11.67;100.00;100756.78;689735;28;1196;-63
2022/10/14 01:06:17;;;;;;;14.50;11.45;;;;;;;11.67;100.00;100760.31;685714;28;2282;-63
2022/10/14 01:06:40;;;;;;;15.93;12.77;;;;;;;11.74;100.00;100763.72;685577;28;5050;-63
2022/10/14 01:07:33;;;;;;;16.67;12.68;;;;;;;11.74;100.00;100761.97;694035;28;1221;-63
2022/10/14 01:08:17;;;;;;;15.88;12.20;;;;;;;11.67;100.00;100759.41;694559;28;1245;-63
2022/10/14 01:09:09;;;;;;;16.38;12.05;;;;;;;11.62;100.00;100751.59;692529;28;1578;-65
2022/10/14 01:09:38;;;;;;;16.08;12.95;;;;;;;11.61;100.00;100755.09;686481;28;1565;-63
2022/10/14 01:10:29;;;;;;;15.90;12.63;;;;;;;11.81;100.00;100757.56;683159;28;4943;-64
2022/10/14 01:11:01;;;;;;;18.15;12.95;;;;;;;11.76;100.00;100752.34;693916;28;1287;-63
2022/10/14 01:11:43;;;;;;;16.80;12.77;;;;;;;11.81;100.00;100752.34;693774;28;1234;-63
2022/10/14 01:12:23;;;;;;;15.07;12.32;;;;;;;11.96;100.00;100759.19;692422;28;2348;-64
2022/10/14 01:12:54;;;;;;;17.67;12.45;;;;;;;12.01;100.00;100746.94;692035;28;4435;-63
2022/10/14 01:13:25;;;;;;;15.52;12.30;;;;;;;11.96;100.00;100753.97;695182;28;1222;-63
2022/10/14 01:14:24;;;;;;;14.23;12.10;;;;;;;12.07;100.00;100754.75;692842;28;1357;-63
2022/10/14 01:14:58;;;;;;;14.32;12.02;;;;;;;11.92;100.00;100750.47;681219;28;2339;-63
2022/10/14 01:15:24;;;;;;;15.52;12.23;;;;;;;11.94;100.00;100747.88;681328;28;1694;-63
2022/10/14 01:16:02;;;;;;;15.27;12.10;;;;;;;11.92;100.00;100755.72;683293;28;4630;-63
2022/10/14 01:16:55;;;;;;;15.55;12.40;;;;;;;11.86;100.00;100753.13;687351;28;2244;-64
2022/10/14 01:17:37;;;;;;;15.50;12.45;;;;;;;11.85;100.00;100751.44;681856;28;1346;-64
2022/10/14 01:18:36;;;;;;;16.50;12.45;;;;;;;11.77;100.00;100753.25;685547;28;1650;-64
2022/10/14 01:19:23;;;;;;;16.65;12.35;;;;;;;11.69;100.00;100757.66;696388;28;4716;-63
2022/10/14 01:20:02;;;;;;;15.52;12.25;;;;;;;11.66;100.00;100749.81;696137;28;1436;-63
2022/10/14 01:20:51;;;;;;;16.38;13.13;;;;;;;11.59;100.00;100747.25;695233;28;2261;-63
2022/10/14 01:21:27;;;;;;;15.55;12.75;;;;;;;11.59;100.00;100752.50;695935;28;1567;-63
2022/10/14 01:21:54;;;;;;;17.45;13.57;;;;;;;11.63;100.00;100749.84;695142;28;4403;-64
2022/10/14 01:22:23;;;;;;;17.02;13.25;;;;;;;11.62;100.00;100745.50;696259;28;1191;-63
2022/10/14 01:23:07;;;;;;;17.75;13.50;;;;;;;11.59;100.00;100754.25;696352;28;1528;-64
2022/10/14 01:24:04;;;;;;;15.98;13.13;;;;;;;11.59;100.00;100742.03;699009;28;1912;-64
2022/10/14 01:24:59;;;;;;;18.02;13.82;;;;;;;11.64;100.00;100743.72;695718;28;2350;-64
2022/10/14 01:25:44;;;;;;;17.15;12.82;;;;;;;11.61;100.00;100749.00;687445;28;4755;-65
2022/10/14 01:26:47;;;;;;;16.48;13.25;;;;;;;11.56;100.00;100736.81;687851;28;1414;-65
2022/10/14 01:27:16;;;;;;;16.10;12.80;;;;;;;11.57;100.00;100742.91;695012;28;2311;-64
2022/10/14 01:27:58;;;;;;;16.52;13.15;;;;;;;11.58;100.00;100739.41;694535;28;4491;-64
2022/10/14 01:28:33;;;;;;;16.52;12.90;;;;;;;11.69;100.00;100747.19;699165;28;1395;-65
2022/10/14 01:29:19;;;;;;;18.67;12.93;;;;;;;11.66;100.00;100736.72;696069;28;1269;-65
2022/10/14 01:30:05;;;;;;;16.45;13.38;;;;;;;11.69;100.00;100736.72;693359;28;1231;-65
2022/10/14 01:30:32;;;;;;;16.08;12.63;;;;;;;11.79;100.00;100743.59;693063;28;2054;-65
2022/10/14 01:31:12;;;;;;;18.63;13.10;;;;;;;11.83;100.00;100734.84;695773;28;4302;-65
2022/10/14 01:31:37;;;;;;;16.38;12.93;;;;;;;11.85;100.00;100738.31;696062;28;1703;-65
2022/10/14 01:32:09;;;;;;;15.48;12.50;;;;;;;11.77;100.00;100734.91;693291;28;1342;-64
2022/10/14 01:32:44;;;;;;;17.77;13.05;;;;;;;11.71;100.00;100735.81;689994;28;1609;-65
2022/10/14 01:33:04;;;;;;;16.33;12.23;;;;;;;11.68;100.00;100738.44;686821;28;1417;-64
2022/10/14 01:33:35;;;;;;;15.48;12.43;;;;;;;11.70;100.00;100730.56;686735;28;2225;-65
2022/10/14 01:33:58;;;;;;;17.05;12.90;;;;;;;11.77;100.00;100729.66;689114;28;4809;-65
2022/10/14 01:34:26;;;;;;;17.73;12.75;;;;;;;11.77;100.00;100732.28;689346;28;1349;-65
2022/10/14 01:34:54;;;;;;;15.65;12.57;;;;;;;11.76;100.00;100727.91;690667;28;1266;-65
2022/10/14 01:35:30;;;;;;;18.02;13.30;;;;;;;11.77;100.00;100727.03;691028;28;1294;-65
2022/10/14 01:35:57;;;;;;;17.38;13.25;;;;;;;11.74;100.00;100729.66;694469;28;1285;-65
2022/10/14 01:36:24;;;;;;;15.63;12.52;;;;;;;11.70;100.00;100726.22;692443;28;2726;-64
2022/10/14 01:36:59;;;;;;;16.15;12.90;;;;;;;11.74;100.00;100727.94;693950;28;4536;-65
2022/10/14 01:37:25;;;;;;;16.02;13.00;;;;;;;11.69;100.00;100727.09;695849;28;1330;-65
2022/10/14 01:37:55;;;;;;;17.33;13.45;;;;;;;11.73;100.00;100725.34;692184;28;1435;-65
2022/10/14 01:38:24;;;;;;;24.25;13.32;;;;;;;11.69;100.00;100718.38;690604;28;1367;-65
2022/10/14 01:39:17;;;;;;;16.25;12.90;;;;;;;11.88;100.00;100726.94;687705;28;1410;-65
2022/10/14 01:39:49;;;;;;;18.10;12.93;;;;;;;11.88;100.00;100719.97;677708;28;4578;-64
2022/10/14 01:40:18;;;;;;;16.10;12.63;;;;;;;11.79;100.00;100722.66;684195;28;1454;-65
2022/10/14 01:41:19;;;;;;;16.02;13.13;;;;;;;11.79;100.00;100722.66;693097;28;2582;-65
2022/10/14 01:41:45;;;;;;;16.67;13.25;;;;;;;11.82;100.00;100722.63;690468;28;2348;-65
2022/10/14 01:42:28;;;;;;;16.08;13.02;;;;;;;11.72;100.00;100723.59;690361;28;1518;-65
2022/10/14 01:42:51;;;;;;;15.45;13.05;;;;;;;11.68;100.00;100721.88;693851;28;4683;-65
2022/10/14 01:43:13;;;;;;;16.90;13.40;;;;;;;11.64;100.00;100722.78;696246;28;1250;-64
2022/10/14 01:43:36;;;;;;;18.48;13.52;;;;;;;11.78;100.00;100720.91;692995;28;1944;-65
2022/10/14 01:44:02;;;;;;;17.98;13.82;;;;;;;11.79;100.00;100717.41;694407;28;1155;-64
2022/10/14 01:44:25;;;;;;;15.45;13.00;;;;;;;11.77;100.00;100713.94;695517;28;2545;-64
2022/10/14 01:44:50;;;;;;;16.52;13.20;;;;;;;11.81;100.00;100715.66;695835;28;1329;-65
2022/10/14 01:45:16;;;;;;;17.77;13.30;;;;;;;11.78;100.00;100720.91;696115;28;1397;-65
2022/10/14 01:45:40;;;;;;;16.95;13.10;;;;;;;11.79;100.00;100717.41;695426;28;4372;-65
2022/10/14 01:46:04;;;;;;;17.38;12.68;;;;;;;11.81;100.00;100713.03;696362;28;1393;-65
2022/10/14 01:46:26;;;;;;;16.80;12.95;;;;;;;11.81;100.00;100720.91;696083;28;1165;-66
2022/10/14 01:46:52;;;;;;;14.80;12.70;;;;;;;11.77;100.00;100719.19;692767;28;2347;-65
2022/10/14 01:47:18;;;;;;;16.27;13.05;;;;;;;11.75;100.00;100710.47;690586;28;1449;-64
2022/10/14 01:47:40;;;;;;;16.50;12.75;;;;;;;11.71;100.00;100709.63;692382;28;1363;-65
2022/10/14 01:48:04;;;;;;;15.43;12.63;;;;;;;11.69;100.00;100711.38;693056;28;1455;-65
2022/10/14 01:48:29;;;;;;;15.82;13.00;;;;;;;11.66;100.00;100707.91;694471;28;1175;-65
2022/10/14 01:48:54;;;;;;;16.98;12.55;;;;;;;11.63;100.00;100710.56;690836;28;4613;-64
2022/10/14 01:49:24;;;;;;;16.25;12.73;;;;;;;11.59;100.00;100705.38;692484;28;1159;-65
2022/10/14 01:49:55;;;;;;;15.88;13.05;;;;;;;11.57;100.00;100701.91;692464;28;1294;-64
2022/10/14 01:50:21;;;;;;;16.15;12.45;;;;;;;11.57;100.00;100706.25;690572;28;1400;-66
2022/10/14 01:50:46;;;;;;;17.95;13.25;;;;;;;11.74;100.00;100701.75;690227;28;1269;-65
2022/10/14 01:51:15;;;;;;;17.85;13.20;;;;;;;11.86;100.00;100703.38;692526;28;1413;-65
2022/10/14 01:51:45;;;;;;;16.00;13.00;;;;;;;11.81;100.00;100694.72;692845;28;4665;-65
2022/10/14 01:52:18;;;;;;;17.23;13.20;;;;;;;11.76;100.00;100699.13;694274;28;1594;-64
2022/10/14 01:52:44;;;;;;;16.45;12.98;;;;;;;11.77;100.00;100698.25;695942;28;1523;-65
2022/10/14 01:53:10;;;;;;;16.23;12.90;;;;;;;11.83;100.00;100698.16;697400;28;1597;-65
2022/10/14 01:53:36;;;;;;;15.52;12.65;;;;;;;11.93;100.00;100702.44;696419;28;1179;-65
2022/10/14 01:54:05;;;;;;;15.70;12.73;;;;;;;11.84;100.00;100699.91;696151;28;1345;-65
2022/10/14 01:54:30;;;;;;;17.35;12.82;;;;;;;11.82;100.00;100692.94;694836;28;1499;-65
2022/10/14 01:54:55;;;;;;;16.17;12.60;;;;;;;11.78;100.00;100699.94;694515;28;4500;-65
2022/10/14 01:55:23;;;;;;;16.17;12.25;;;;;;;11.74;100.00;100690.38;695302;28;1250;-65
2022/10/14 01:55:47;;;;;;;15.82;12.45;;;;;;;11.75;100.00;100694.75;691614;28;1357;-65
2022/10/14 01:56:11;;;;;;;16.00;12.40;;;;;;;11.72;100.00;100689.53;691833;28;1294;-65
2022/10/14 01:56:33;;;;;;;15.88;13.10;;;;;;;11.74;100.00;100695.63;692728;28;1425;-65
2022/10/14 01:56:56;;;;;;;16.65;12.85;;;;;;;11.71;100.00;100687.81;692374;28;1604;-65
2022/10/14 01:57:22;;;;;;;16.65;12.95;;;;;;;11.72;100.00;100689.53;695110;28;1230;-65
2022/10/14 01:57:44;;;;;;;17.90;13.20;;;;;;;11.78;100.00;100694.72;694927;28;4419;-65
2022/10/14 01:58:06;;;;;;;17.50;12.68;;;;;;;11.92;100.00;100691.97;693617;28;1588;-65
2022/10/14 01:58:30;;;;;;;18.25;12.70;;;;;;;11.87;100.00;100688.53;690055;28;1531;-65
2022/10/14 01:58:51;;;;;;;15.95;12.00;;;;;;;11.80;100.00;100684.25;687803;28;1498;-65
2022/10/14 01:59:15;;;;;;;17.08;12.63;;;;;;;11.75;100.00;100692.13;688161;28;1440;-65
2022/10/14 01:59:39;;;;;;;16.33;12.77;;;;;;;11.79;100.00;100691.22;687526;28;1192;-65